Sunday, August 19, 2018, 12:24 AM GMT
Back to Local

CWQP, Point Petre , Ont.

Location: , , Canada Lat: 43.833
Local Time: 12:24 AM GMT ( 0:24 GMT) Lon: -77.15
Time Zone: GMT Elev: 259 ft

Show me the last for .
Show Coded

Time T Td Feel RH Dir Speed Gust Alt SLP Vis Weather Sky Remarks
2018-08-19 00:00 68 61 - 78 360° 7 - - 29.94 0 None
2018-08-18 23:00 72 61 76 68 20° 6 - - 29.93 0 None
2018-08-18 22:00 74 60 77 61 20° 8 - - 29.93 0 None
2018-08-18 21:00 76 61 79 59 10° 8 - - 29.93 0 None
2018-08-18 20:00 75 61 78 61 20° 12 - - 29.93 0 None
2018-08-18 19:00 76 61 78 60 30° 13 - - 29.93 0 None
2018-08-18 18:00 75 61 78 61 20° 10 - - 29.93 0 None
2018-08-18 17:00 74 61 77 63 50° 10 - - 29.93 0 Peak wind: 19 mph (17 kts) from 50° at 26 min
2018-08-18 16:00 73 60 77 64 50° 15 - - 29.94 0 Peak wind: 19 mph (17 kts) from 30° at 28 min
2018-08-18 15:00 70 60 76 70 40° 15 21 - 29.94 0 Peak wind: 21 mph (19 kts) from 30° at 32 min
2018-08-18 14:00 66 60 - 80 30° 15 - - 29.93 0 None
2018-08-18 13:00 64 60 - 86 30° 10 - - 29.93 0 None
2018-08-18 12:00 63 60 - 89 20° 9 - - 29.93 0 None
2018-08-18 11:00 63 61 - 92 20° 8 - - 29.91 0 None
2018-08-18 10:00 63 61 - 92 10° 8 - - 29.91 0 None
2018-08-18 09:00 64 61 - 92 10° 8 - - 29.90 0 None
2018-08-18 08:00 64 61 - 90 360° 8 - - 29.90 0 None
2018-08-18 07:00 64 64 - 100 350° 7 - - 29.89 0 None
2018-08-18 06:00 65 65 - 98 30° 7 - - 29.88 0 None
2018-08-18 05:00 68 66 - 94 20° 6 - - 29.89 0 None
2018-08-18 04:00 68 67 - 95 30° 8 - - 29.88 0 1-hr Precip Total: 0.09"
2018-08-18 03:00 68 66 - 93 40° 7 - - 29.88 0 None
2018-08-18 02:00 69 66 - 92 30° 12 - - 29.87 0 Peak wind: 20 mph (18 kts) from 20° at 22 min
1-hr Precip Total: 0.07"
2018-08-18 01:00 73 72 78 96 280° 5 - - 29.85 0 1-hr Precip Total: 0.24"

Support USWX by starting your Amazon purchase here.